sensor_id;sensor_type;location;lat;lon;timestamp;pressure;altitude;pressure_sealevel;temperature
70819;BMP280;58439;51.046;13.692;2023-03-01T00:01:31;101365.84;;;-1.94
70819;BMP280;58439;51.046;13.692;2023-03-01T00:03:59;101369.63;;;-2.03
70819;BMP280;58439;51.046;13.692;2023-03-01T00:06:27;101375.53;;;-2.01
70819;BMP280;58439;51.046;13.692;2023-03-01T00:08:55;101374.75;;;-2.03
70819;BMP280;58439;51.046;13.692;2023-03-01T00:11:26;101380.66;;;-2.01
70819;BMP280;58439;51.046;13.692;2023-03-01T00:13:57;101366.91;;;-2.17
70819;BMP280;58439;51.046;13.692;2023-03-01T00:16:38;101369.88;;;-2.26
70819;BMP280;58439;51.046;13.692;2023-03-01T00:19:13;101370.88;;;-2.29
70819;BMP280;58439;51.046;13.692;2023-03-01T00:21:42;101361.53;;;-2.31
70819;BMP280;58439;51.046;13.692;2023-03-01T00:24:10;101365.91;;;-2.33
70819;BMP280;58439;51.046;13.692;2023-03-01T00:26:37;101366.78;;;-2.34
70819;BMP280;58439;51.046;13.692;2023-03-01T00:29:05;101367.53;;;-2.31
70819;BMP280;58439;51.046;13.692;2023-03-01T00:31:33;101358.75;;;-2.25
70819;BMP280;58439;51.046;13.692;2023-03-01T00:34:31;101362.81;;;-2.21
70819;BMP280;58439;51.046;13.692;2023-03-01T00:37:26;101359.97;;;-2.15
70819;BMP280;58439;51.046;13.692;2023-03-01T00:40:36;101357.19;;;-2.10
70819;BMP280;58439;51.046;13.692;2023-03-01T00:43:57;101349.78;;;-2.16
70819;BMP280;58439;51.046;13.692;2023-03-01T00:46:26;101349.53;;;-2.29
70819;BMP280;58439;51.046;13.692;2023-03-01T00:48:54;101340.66;;;-2.41
70819;BMP280;58439;51.046;13.692;2023-03-01T00:51:25;101347.56;;;-2.43
70819;BMP280;58439;51.046;13.692;2023-03-01T00:53:56;101336.50;;;-2.44
70819;BMP280;58439;51.046;13.692;2023-03-01T00:56:36;101337.53;;;-2.48
70819;BMP280;58439;51.046;13.692;2023-03-01T00:59:03;101336.44;;;-2.61
70819;BMP280;58439;51.046;13.692;2023-03-01T01:01:31;101347.25;;;-2.75
70819;BMP280;58439;51.046;13.692;2023-03-01T01:04:12;101345.31;;;-2.88
70819;BMP280;58439;51.046;13.692;2023-03-01T01:06:46;101337.88;;;-2.95
70819;BMP280;58439;51.046;13.692;2023-03-01T01:09:17;101341.53;;;-3.00
70819;BMP280;58439;51.046;13.692;2023-03-01T01:12:14;101336.84;;;-3.11
70819;BMP280;58439;51.046;13.692;2023-03-01T01:14:41;101337.34;;;-3.03
70819;BMP280;58439;51.046;13.692;2023-03-01T01:17:09;101344.91;;;-3.00
70819;BMP280;58439;51.046;13.692;2023-03-01T01:19:36;101337.88;;;-2.95
70819;BMP280;58439;51.046;13.692;2023-03-01T01:22:03;101328.25;;;-2.89
70819;BMP280;58439;51.046;13.692;2023-03-01T01:24:31;101331.31;;;-2.81
70819;BMP280;58439;51.046;13.692;2023-03-01T01:26:59;101334.91;;;-2.85
70819;BMP280;58439;51.046;13.692;2023-03-01T01:29:27;101328.13;;;-2.86
70819;BMP280;58439;51.046;13.692;2023-03-01T01:31:54;101328.84;;;-2.83
70819;BMP280;58439;51.046;13.692;2023-03-01T01:34:22;101324.75;;;-2.87
70819;BMP280;58439;51.046;13.692;2023-03-01T01:36:53;101314.81;;;-2.93
70819;BMP280;58439;51.046;13.692;2023-03-01T01:39:22;101313.81;;;-2.90
70819;BMP280;58439;51.046;13.692;2023-03-01T01:41:49;101318.34;;;-2.97
70819;BMP280;58439;51.046;13.692;2023-03-01T01:44:28;101321.50;;;-3.11
70819;BMP280;58439;51.046;13.692;2023-03-01T01:47:04;101325.34;;;-3.21
70819;BMP280;58439;51.046;13.692;2023-03-01T01:49:38;101322.19;;;-3.28
70819;BMP280;58439;51.046;13.692;2023-03-01T01:52:24;101321.13;;;-3.22
70819;BMP280;58439;51.046;13.692;2023-03-01T01:55:15;101333.69;;;-2.97
70819;BMP280;58439;51.046;13.692;2023-03-01T01:57:48;101321.63;;;-2.94
70819;BMP280;58439;51.046;13.692;2023-03-01T02:00:24;101317.06;;;-2.87
70819;BMP280;58439;51.046;13.692;2023-03-01T02:02:58;101317.34;;;-2.93
70819;BMP280;58439;51.046;13.692;2023-03-01T02:06:00;101320.97;;;-2.99
70819;BMP280;58439;51.046;13.692;2023-03-01T02:08:33;101310.56;;;-2.94
70819;BMP280;58439;51.046;13.692;2023-03-01T02:11:02;101307.47;;;-3.02
70819;BMP280;58439;51.046;13.692;2023-03-01T02:13:33;101314.25;;;-3.01
70819;BMP280;58439;51.046;13.692;2023-03-01T02:16:13;101311.06;;;-3.06
70819;BMP280;58439;51.046;13.692;2023-03-01T02:18:53;101312.38;;;-2.98
70819;BMP280;58439;51.046;13.692;2023-03-01T02:22:19;101298.88;;;-3.01
70819;BMP280;58439;51.046;13.692;2023-03-01T02:25:01;101291.06;;;-3.17
70819;BMP280;58439;51.046;13.692;2023-03-01T02:28:33;101297.28;;;-3.23
70819;BMP280;58439;51.046;13.692;2023-03-01T02:31:05;101284.66;;;-3.27
70819;BMP280;58439;51.046;13.692;2023-03-01T02:33:54;101278.53;;;-3.23
70819;BMP280;58439;51.046;13.692;2023-03-01T02:36:30;101275.09;;;-3.22
70819;BMP280;58439;51.046;13.692;2023-03-01T02:39:05;101275.03;;;-3.21
70819;BMP280;58439;51.046;13.692;2023-03-01T02:41:41;101287.34;;;-3.30
70819;BMP280;58439;51.046;13.692;2023-03-01T02:44:09;101285.38;;;-3.44
70819;BMP280;58439;51.046;13.692;2023-03-01T02:46:46;101279.03;;;-3.56
70819;BMP280;58439;51.046;13.692;2023-03-01T02:49:28;101278.38;;;-3.61
70819;BMP280;58439;51.046;13.692;2023-03-01T02:52:27;101274.47;;;-3.48
70819;BMP280;58439;51.046;13.692;2023-03-01T02:55:16;101271.50;;;-3.38
70819;BMP280;58439;51.046;13.692;2023-03-01T02:57:48;101278.94;;;-3.32
70819;BMP280;58439;51.046;13.692;2023-03-01T03:00:24;101269.84;;;-3.40
70819;BMP280;58439;51.046;13.692;2023-03-01T03:02:57;101275.88;;;-3.41
70819;BMP280;58439;51.046;13.692;2023-03-01T03:05:30;101268.44;;;-3.47
70819;BMP280;58439;51.046;13.692;2023-03-01T03:08:01;101257.75;;;-3.56
70819;BMP280;58439;51.046;13.692;2023-03-01T03:10:39;101274.47;;;-3.70
70819;BMP280;58439;51.046;13.692;2023-03-01T03:13:14;101269.84;;;-3.82
70819;BMP280;58439;51.046;13.692;2023-03-01T03:15:43;101273.53;;;-3.89
70819;BMP280;58439;51.046;13.692;2023-03-01T03:18:15;101271.31;;;-3.97
70819;BMP280;58439;51.046;13.692;2023-03-01T03:20:44;101267.97;;;-3.99
70819;BMP280;58439;51.046;13.692;2023-03-01T03:23:13;101265.38;;;-3.97
70819;BMP280;58439;51.046;13.692;2023-03-01T03:25:40;101262.97;;;-3.80
70819;BMP280;58439;51.046;13.692;2023-03-01T03:28:07;101257.22;;;-3.65
70819;BMP280;58439;51.046;13.692;2023-03-01T03:30:40;101259.34;;;-3.54
70819;BMP280;58439;51.046;13.692;2023-03-01T03:33:11;101250.91;;;-3.56
70819;BMP280;58439;51.046;13.692;2023-03-01T03:35:44;101256.34;;;-3.64
70819;BMP280;58439;51.046;13.692;2023-03-01T03:38:14;101265.25;;;-3.72
70819;BMP280;58439;51.046;13.692;2023-03-01T03:43:22;101257.16;;;-3.83
70819;BMP280;58439;51.046;13.692;2023-03-01T03:45:51;101248.81;;;-3.89
70819;BMP280;58439;51.046;13.692;2023-03-01T03:48:19;101247.94;;;-3.88
70819;BMP280;58439;51.046;13.692;2023-03-01T03:50:54;101241.84;;;-3.85
70819;BMP280;58439;51.046;13.692;2023-03-01T03:53:35;101248.47;;;-3.79
70819;BMP280;58439;51.046;13.692;2023-03-01T03:56:02;101241.09;;;-3.87
70819;BMP280;58439;51.046;13.692;2023-03-01T03:58:32;101249.59;;;-3.87
70819;BMP280;58439;51.046;13.692;2023-03-01T04:00:59;101251.25;;;-3.85
70819;BMP280;58439;51.046;13.692;2023-03-01T04:03:29;101245.75;;;-3.76
70819;BMP280;58439;51.046;13.692;2023-03-01T04:06:05;101253.88;;;-3.87
70819;BMP280;58439;51.046;13.692;2023-03-01T04:08:33;101260.50;;;-4.03
70819;BMP280;58439;51.046;13.692;2023-03-01T04:11:03;101260.69;;;-4.08
70819;BMP280;58439;51.046;13.692;2023-03-01T04:13:57;101258.47;;;-4.17
70819;BMP280;58439;51.046;13.692;2023-03-01T04:16:26;101257.16;;;-4.27
70819;BMP280;58439;51.046;13.692;2023-03-01T04:18:53;101255.75;;;-4.35
70819;BMP280;58439;51.046;13.692;2023-03-01T04:21:21;101264.16;;;-4.32
70819;BMP280;58439;51.046;13.692;2023-03-01T04:23:49;101264.63;;;-4.23
70819;BMP280;58439;51.046;13.692;2023-03-01T04:26:19;101246.69;;;-4.21
70819;BMP280;58439;51.046;13.692;2023-03-01T04:28:47;101250.63;;;-4.13
70819;BMP280;58439;51.046;13.692;2023-03-01T04:31:18;101250.38;;;-4.06
70819;BMP280;58439;51.046;13.692;2023-03-01T04:33:55;101255.03;;;-4.16
70819;BMP280;58439;51.046;13.692;2023-03-01T04:36:26;101252.06;;;-4.27
70819;BMP280;58439;51.046;13.692;2023-03-01T04:38:55;101254.19;;;-4.39
70819;BMP280;58439;51.046;13.692;2023-03-01T04:41:25;101257.84;;;-4.46
70819;BMP280;58439;51.046;13.692;2023-03-01T04:44:10;101250.00;;;-4.41
70819;BMP280;58439;51.046;13.692;2023-03-01T04:46:53;101252.06;;;-4.27
70819;BMP280;58439;51.046;13.692;2023-03-01T04:50:01;101252.88;;;-4.27
70819;BMP280;58439;51.046;13.692;2023-03-01T04:52:43;101248.78;;;-4.31
70819;BMP280;58439;51.046;13.692;2023-03-01T04:55:45;101249.72;;;-4.33
70819;BMP280;58439;51.046;13.692;2023-03-01T04:58:15;101253.94;;;-4.32
70819;BMP280;58439;51.046;13.692;2023-03-01T05:00:42;101261.09;;;-4.20
70819;BMP280;58439;51.046;13.692;2023-03-01T05:03:10;101260.59;;;-4.28
70819;BMP280;58439;51.046;13.692;2023-03-01T05:05:38;101258.28;;;-4.35
70819;BMP280;58439;51.046;13.692;2023-03-01T05:08:18;101254.84;;;-4.33
70819;BMP280;58439;51.046;13.692;2023-03-01T05:10:56;101255.53;;;-4.30
70819;BMP280;58439;51.046;13.692;2023-03-01T05:14:14;101244.63;;;-4.33
70819;BMP280;58439;51.046;13.692;2023-03-01T05:16:43;101250.63;;;-4.35
70819;BMP280;58439;51.046;13.692;2023-03-01T05:19:10;101249.91;;;-4.38
70819;BMP280;58439;51.046;13.692;2023-03-01T05:21:43;101249.81;;;-4.35
70819;BMP280;58439;51.046;13.692;2023-03-01T05:24:32;101247.06;;;-4.30
70819;BMP280;58439;51.046;13.692;2023-03-01T05:27:01;101242.97;;;-4.35
70819;BMP280;58439;51.046;13.692;2023-03-01T05:29:30;101249.09;;;-4.39
70819;BMP280;58439;51.046;13.692;2023-03-01T05:32:01;101247.63;;;-4.46
70819;BMP280;58439;51.046;13.692;2023-03-01T05:34:34;101231.22;;;-4.40
70819;BMP280;58439;51.046;13.692;2023-03-01T05:37:02;101242.78;;;-4.30
70819;BMP280;58439;51.046;13.692;2023-03-01T05:39:30;101242.16;;;-4.35
70819;BMP280;58439;51.046;13.692;2023-03-01T05:42:01;101234.69;;;-4.41
70819;BMP280;58439;51.046;13.692;2023-03-01T05:44:29;101239.13;;;-4.46
70819;BMP280;58439;51.046;13.692;2023-03-01T05:46:58;101243.47;;;-4.48
70819;BMP280;58439;51.046;13.692;2023-03-01T05:49:26;101234.97;;;-4.49
70819;BMP280;58439;51.046;13.692;2023-03-01T05:51:53;101231.09;;;-4.36
70819;BMP280;58439;51.046;13.692;2023-03-01T05:54:21;101233.66;;;-4.36
70819;BMP280;58439;51.046;13.692;2023-03-01T05:56:48;101242.91;;;-4.33
70819;BMP280;58439;51.046;13.692;2023-03-01T05:59:19;101242.78;;;-4.30
70819;BMP280;58439;51.046;13.692;2023-03-01T06:01:46;101241.56;;;-4.21
70819;BMP280;58439;51.046;13.692;2023-03-01T06:04:14;101244.09;;;-4.20
70819;BMP280;58439;51.046;13.692;2023-03-01T06:06:45;101243.38;;;-4.23
70819;BMP280;58439;51.046;13.692;2023-03-01T06:10:23;101247.66;;;-4.24
70819;BMP280;58439;51.046;13.692;2023-03-01T06:12:51;101255.50;;;-4.06
70819;BMP280;58439;51.046;13.692;2023-03-01T06:15:18;101254.94;;;-3.93
70819;BMP280;58439;51.046;13.692;2023-03-01T06:17:46;101247.06;;;-3.87
70819;BMP280;58439;51.046;13.692;2023-03-01T06:21:02;101253.63;;;-3.81
70819;BMP280;58439;51.046;13.692;2023-03-01T06:23:54;101246.59;;;-3.76
70819;BMP280;58439;51.046;13.692;2023-03-01T06:26:21;101249.13;;;-3.74
70819;BMP280;58439;51.046;13.692;2023-03-01T06:28:52;101257.28;;;-3.66
70819;BMP280;58439;51.046;13.692;2023-03-01T06:31:20;101259.09;;;-3.68
70819;BMP280;58439;51.046;13.692;2023-03-01T06:33:48;101264.66;;;-3.58
70819;BMP280;58439;51.046;13.692;2023-03-01T06:36:15;101260.94;;;-3.51
70819;BMP280;58439;51.046;13.692;2023-03-01T06:38:46;101258.44;;;-3.53
70819;BMP280;58439;51.046;13.692;2023-03-01T06:41:33;101261.25;;;-3.59
70819;BMP280;58439;51.046;13.692;2023-03-01T06:44:04;101273.41;;;-3.64
70819;BMP280;58439;51.046;13.692;2023-03-01T06:46:53;101264.72;;;-3.60
70819;BMP280;58439;51.046;13.692;2023-03-01T06:49:27;101265.66;;;-3.63
70819;BMP280;58439;51.046;13.692;2023-03-01T06:52:25;101264.53;;;-3.55
70819;BMP280;58439;51.046;13.692;2023-03-01T06:55:41;101264.06;;;-3.45
70819;BMP280;58439;51.046;13.692;2023-03-01T06:58:09;101269.97;;;-3.43
70819;BMP280;58439;51.046;13.692;2023-03-01T07:00:37;101265.06;;;-3.47
70819;BMP280;58439;51.046;13.692;2023-03-01T07:03:44;101268.53;;;-3.48
70819;BMP280;58439;51.046;13.692;2023-03-01T07:09:40;101253.19;;;-3.48
70819;BMP280;58439;51.046;13.692;2023-03-01T07:12:16;101252.28;;;-3.47
70819;BMP280;58439;51.046;13.692;2023-03-01T07:15:23;101262.22;;;-3.41
70819;BMP280;58439;51.046;13.692;2023-03-01T07:17:53;101254.22;;;-3.33
70819;BMP280;58439;51.046;13.692;2023-03-01T07:20:24;101249.59;;;-3.25
70819;BMP280;58439;51.046;13.692;2023-03-01T07:22:54;101252.00;;;-3.21
70819;BMP280;58439;51.046;13.692;2023-03-01T07:25:21;101246.41;;;-3.10
70819;BMP280;58439;51.046;13.692;2023-03-01T07:27:51;101250.47;;;-3.06
70819;BMP280;58439;51.046;13.692;2023-03-01T07:34:02;101241.53;;;-2.96
70819;BMP280;58439;51.046;13.692;2023-03-01T07:36:30;101239.16;;;-2.81
70819;BMP280;58439;51.046;13.692;2023-03-01T07:39:10;101235.06;;;-2.65
70819;BMP280;58439;51.046;13.692;2023-03-01T07:41:40;101237.25;;;-2.57
70819;BMP280;58439;51.046;13.692;2023-03-01T07:44:07;101233.25;;;-2.46
70819;BMP280;58439;51.046;13.692;2023-03-01T07:46:37;101228.22;;;-2.28
70819;BMP280;58439;51.046;13.692;2023-03-01T07:49:04;101238.59;;;-2.14
70819;BMP280;58439;51.046;13.692;2023-03-01T07:51:32;101232.72;;;-1.99
70819;BMP280;58439;51.046;13.692;2023-03-01T07:53:59;101233.47;;;-1.78
70819;BMP280;58439;51.046;13.692;2023-03-01T07:56:26;101242.84;;;-1.61
70819;BMP280;58439;51.046;13.692;2023-03-01T07:58:54;101237.94;;;-1.48
70819;BMP280;58439;51.046;13.692;2023-03-01T08:01:43;101228.91;;;-1.39
70819;BMP280;58439;51.046;13.692;2023-03-01T08:04:18;101228.50;;;-1.30
70819;BMP280;58439;51.046;13.692;2023-03-01T08:06:45;101220.31;;;-1.21
70819;BMP280;58439;51.046;13.692;2023-03-01T08:09:12;101216.41;;;-1.12
70819;BMP280;58439;51.046;13.692;2023-03-01T08:11:40;101209.97;;;-1.04
70819;BMP280;58439;51.046;13.692;2023-03-01T08:14:33;101207.31;;;-0.86
70819;BMP280;58439;51.046;13.692;2023-03-01T08:17:17;101208.47;;;-0.76
70819;BMP280;58439;51.046;13.692;2023-03-01T08:24:38;101210.59;;;-0.53
70819;BMP280;58439;51.046;13.692;2023-03-01T08:27:06;101212.91;;;-0.48
70819;BMP280;58439;51.046;13.692;2023-03-01T08:29:34;101205.59;;;-0.40
70819;BMP280;58439;51.046;13.692;2023-03-01T08:32:01;101203.22;;;-0.27
70819;BMP280;58439;51.046;13.692;2023-03-01T08:34:29;101203.44;;;-0.16
70819;BMP280;58439;51.046;13.692;2023-03-01T08:36:58;101202.91;;;-0.07
70819;BMP280;58439;51.046;13.692;2023-03-01T08:39:25;101204.94;;;0.03
70819;BMP280;58439;51.046;13.692;2023-03-01T08:41:52;101209.25;;;0.02
70819;BMP280;58439;51.046;13.692;2023-03-01T08:44:20;101201.09;;;0.10
70819;BMP280;58439;51.046;13.692;2023-03-01T08:46:50;101205.69;;;0.19
70819;BMP280;58439;51.046;13.692;2023-03-01T08:49:19;101211.41;;;0.24
70819;BMP280;58439;51.046;13.692;2023-03-01T08:51:48;101204.13;;;0.31
70819;BMP280;58439;51.046;13.692;2023-03-01T08:54:19;101202.19;;;0.34
70819;BMP280;58439;51.046;13.692;2023-03-01T08:56:48;101192.44;;;0.39
70819;BMP280;58439;51.046;13.692;2023-03-01T08:59:18;101198.41;;;0.54
70819;BMP280;58439;51.046;13.692;2023-03-01T09:01:46;101204.84;;;0.61
70819;BMP280;58439;51.046;13.692;2023-03-01T09:04:15;101198.69;;;0.64
70819;BMP280;58439;51.046;13.692;2023-03-01T09:06:43;101200.41;;;0.78
70819;BMP280;58439;51.046;13.692;2023-03-01T09:09:15;101189.38;;;0.90
70819;BMP280;58439;51.046;13.692;2023-03-01T09:11:44;101192.94;;;1.02
70819;BMP280;58439;51.046;13.692;2023-03-01T09:14:14;101189.50;;;1.15
70819;BMP280;58439;51.046;13.692;2023-03-01T09:16:42;101188.28;;;1.21
70819;BMP280;58439;51.046;13.692;2023-03-01T09:19:10;101181.81;;;1.28
70819;BMP280;58439;51.046;13.692;2023-03-01T09:22:07;101172.63;;;1.37
70819;BMP280;58439;51.046;13.692;2023-03-01T09:26:15;101170.38;;;1.45
70819;BMP280;58439;51.046;13.692;2023-03-01T09:28:49;101164.41;;;1.44
70819;BMP280;58439;51.046;13.692;2023-03-01T09:31:19;101161.84;;;1.44
70819;BMP280;58439;51.046;13.692;2023-03-01T09:33:51;101157.53;;;1.58
70819;BMP280;58439;51.046;13.692;2023-03-01T09:36:22;101150.44;;;1.74
70819;BMP280;58439;51.046;13.692;2023-03-01T09:38:51;101152.44;;;1.83
70819;BMP280;58439;51.046;13.692;2023-03-01T09:41:38;101153.41;;;1.93
70819;BMP280;58439;51.046;13.692;2023-03-01T09:48:39;101166.03;;;2.11
70819;BMP280;58439;51.046;13.692;2023-03-01T09:51:18;101163.63;;;2.20
70819;BMP280;58439;51.046;13.692;2023-03-01T09:53:46;101159.28;;;2.34
70819;BMP280;58439;51.046;13.692;2023-03-01T09:57:36;101154.81;;;2.48
70819;BMP280;58439;51.046;13.692;2023-03-01T10:02:58;101155.28;;;2.66
70819;BMP280;58439;51.046;13.692;2023-03-01T10:05:51;101158.63;;;2.80
70819;BMP280;58439;51.046;13.692;2023-03-01T10:13:47;101157.97;;;3.13
70819;BMP280;58439;51.046;13.692;2023-03-01T10:16:28;101150.41;;;3.34
70819;BMP280;58439;51.046;13.692;2023-03-01T10:19:05;101156.69;;;3.53
70819;BMP280;58439;51.046;13.692;2023-03-01T10:21:43;101166.28;;;3.40
70819;BMP280;58439;51.046;13.692;2023-03-01T10:24:17;101158.19;;;3.56
70819;BMP280;58439;51.046;13.692;2023-03-01T10:27:11;101161.31;;;3.72
70819;BMP280;58439;51.046;13.692;2023-03-01T10:30:17;101154.03;;;3.89
70819;BMP280;58439;51.046;13.692;2023-03-01T10:32:51;101151.78;;;3.95
70819;BMP280;58439;51.046;13.692;2023-03-01T10:35:27;101153.09;;;4.12
70819;BMP280;58439;51.046;13.692;2023-03-01T10:38:07;101143.41;;;4.37
70819;BMP280;58439;51.046;13.692;2023-03-01T10:40:50;101143.09;;;6.96
70819;BMP280;58439;51.046;13.692;2023-03-01T10:43:18;101144.25;;;10.21
70819;BMP280;58439;51.046;13.692;2023-03-01T10:45:47;101145.38;;;12.24
70819;BMP280;58439;51.046;13.692;2023-03-01T10:48:26;101141.34;;;13.75
70819;BMP280;58439;51.046;13.692;2023-03-01T10:51:16;101141.47;;;14.31
70819;BMP280;58439;51.046;13.692;2023-03-01T10:53:55;101135.94;;;14.54
70819;BMP280;58439;51.046;13.692;2023-03-01T10:56:22;101136.41;;;15.05
70819;BMP280;58439;51.046;13.692;2023-03-01T10:59:00;101124.97;;;15.26
70819;BMP280;58439;51.046;13.692;2023-03-01T11:01:35;101120.16;;;15.50
70819;BMP280;58439;51.046;13.692;2023-03-01T11:04:13;101119.34;;;15.95
70819;BMP280;58439;51.046;13.692;2023-03-01T11:06:43;101116.53;;;15.97
70819;BMP280;58439;51.046;13.692;2023-03-01T11:09:44;101115.31;;;16.00
70819;BMP280;58439;51.046;13.692;2023-03-01T11:12:15;101115.69;;;16.30
70819;BMP280;58439;51.046;13.692;2023-03-01T11:14:54;101105.72;;;16.96
70819;BMP280;58439;51.046;13.692;2023-03-01T11:17:29;101113.16;;;17.12
70819;BMP280;58439;51.046;13.692;2023-03-01T11:22:54;101098.16;;;17.88
70819;BMP280;58439;51.046;13.692;2023-03-01T11:25:31;101099.13;;;17.93
70819;BMP280;58439;51.046;13.692;2023-03-01T11:28:03;101103.78;;;17.98
70819;BMP280;58439;51.046;13.692;2023-03-01T11:30:40;101099.09;;;17.50
70819;BMP280;58439;51.046;13.692;2023-03-01T11:35:45;101098.41;;;18.41
70819;BMP280;58439;51.046;13.692;2023-03-01T11:38:24;101101.47;;;18.93
70819;BMP280;58439;51.046;13.692;2023-03-01T11:41:04;101106.66;;;19.29
70819;BMP280;58439;51.046;13.692;2023-03-01T11:44:26;101100.66;;;19.46
70819;BMP280;58439;51.046;13.692;2023-03-01T11:47:25;101089.31;;;18.85
70819;BMP280;58439;51.046;13.692;2023-03-01T11:50:35;101090.47;;;18.41
70819;BMP280;58439;51.046;13.692;2023-03-01T11:59:19;101086.97;;;18.77
70819;BMP280;58439;51.046;13.692;2023-03-01T12:05:23;101072.72;;;18.90
70819;BMP280;58439;51.046;13.692;2023-03-01T12:11:03;101073.75;;;19.54
70819;BMP280;58439;51.046;13.692;2023-03-01T12:20:29;101053.28;;;20.13
70819;BMP280;58439;51.046;13.692;2023-03-01T12:31:44;101039.75;;;18.56
70819;BMP280;58439;51.046;13.692;2023-03-01T12:37:36;101038.94;;;17.64
70819;BMP280;58439;51.046;13.692;2023-03-01T12:43:47;101022.78;;;17.90
70819;BMP280;58439;51.046;13.692;2023-03-01T12:47:05;101023.22;;;17.87
70819;BMP280;58439;51.046;13.692;2023-03-01T12:49:45;101023.91;;;17.58
70819;BMP280;58439;51.046;13.692;2023-03-01T12:52:50;101022.44;;;17.37
70819;BMP280;58439;51.046;13.692;2023-03-01T12:55:36;101026.34;;;17.34
70819;BMP280;58439;51.046;13.692;2023-03-01T13:07:30;101006.69;;;18.10
70819;BMP280;58439;51.046;13.692;2023-03-01T13:10:32;101017.06;;;18.12
70819;BMP280;58439;51.046;13.692;2023-03-01T13:15:37;101019.03;;;18.34
70819;BMP280;58439;51.046;13.692;2023-03-01T13:20:54;101004.47;;;18.07
70819;BMP280;58439;51.046;13.692;2023-03-01T13:23:34;101004.66;;;18.24
70819;BMP280;58439;51.046;13.692;2023-03-01T13:26:17;101014.09;;;18.01
70819;BMP280;58439;51.046;13.692;2023-03-01T13:34:39;101016.69;;;18.08
70819;BMP280;58439;51.046;13.692;2023-03-01T13:37:49;101010.84;;;17.63
70819;BMP280;58439;51.046;13.692;2023-03-01T13:42:48;100992.59;;;17.05
70819;BMP280;58439;51.046;13.692;2023-03-01T13:45:42;100995.78;;;17.38
70819;BMP280;58439;51.046;13.692;2023-03-01T13:48:30;100993.31;;;17.62
70819;BMP280;58439;51.046;13.692;2023-03-01T13:51:02;100993.41;;;17.05
70819;BMP280;58439;51.046;13.692;2023-03-01T13:53:36;100993.16;;;16.82
70819;BMP280;58439;51.046;13.692;2023-03-01T13:56:13;100995.66;;;17.02
70819;BMP280;58439;51.046;13.692;2023-03-01T13:59:05;100994.50;;;16.91
70819;BMP280;58439;51.046;13.692;2023-03-01T14:01:36;100997.75;;;16.62
70819;BMP280;58439;51.046;13.692;2023-03-01T14:04:20;100991.94;;;16.84
70819;BMP280;58439;51.046;13.692;2023-03-01T14:06:47;100983.75;;;16.93
70819;BMP280;58439;51.046;13.692;2023-03-01T14:09:22;100988.88;;;17.12
70819;BMP280;58439;51.046;13.692;2023-03-01T14:15:31;100982.03;;;17.30
70819;BMP280;58439;51.046;13.692;2023-03-01T14:18:14;100972.09;;;17.50
70819;BMP280;58439;51.046;13.692;2023-03-01T14:20:43;100972.53;;;17.22
70819;BMP280;58439;51.046;13.692;2023-03-01T14:23:22;100969.41;;;17.32
70819;BMP280;58439;51.046;13.692;2023-03-01T14:25:54;100966.91;;;17.12
70819;BMP280;58439;51.046;13.692;2023-03-01T14:28:30;100966.88;;;17.62
70819;BMP280;58439;51.046;13.692;2023-03-01T14:31:00;100957.91;;;17.44
70819;BMP280;58439;51.046;13.692;2023-03-01T14:33:32;100960.44;;;17.33
70819;BMP280;58439;51.046;13.692;2023-03-01T14:36:12;100969.50;;;16.94
70819;BMP280;58439;51.046;13.692;2023-03-01T14:38:41;100965.81;;;16.63
70819;BMP280;58439;51.046;13.692;2023-03-01T14:45:32;100952.72;;;15.85
70819;BMP280;58439;51.046;13.692;2023-03-01T14:48:29;100953.59;;;15.66
70819;BMP280;58439;51.046;13.692;2023-03-01T14:50:58;100942.41;;;15.71
70819;BMP280;58439;51.046;13.692;2023-03-01T14:53:29;100937.56;;;15.48
70819;BMP280;58439;51.046;13.692;2023-03-01T14:56:03;100938.16;;;14.29
70819;BMP280;58439;51.046;13.692;2023-03-01T14:58:33;100936.06;;;14.18
70819;BMP280;58439;51.046;13.692;2023-03-01T15:01:04;100936.41;;;14.50
70819;BMP280;58439;51.046;13.692;2023-03-01T15:03:45;100942.88;;;14.06
70819;BMP280;58439;51.046;13.692;2023-03-01T15:06:22;100939.00;;;14.36
70819;BMP280;58439;51.046;13.692;2023-03-01T15:08:55;100945.38;;;14.62
70819;BMP280;58439;51.046;13.692;2023-03-01T15:11:30;100934.03;;;13.51
70819;BMP280;58439;51.046;13.692;2023-03-01T15:13:59;100932.50;;;11.59
70819;BMP280;58439;51.046;13.692;2023-03-01T15:16:32;100935.56;;;9.91
70819;BMP280;58439;51.046;13.692;2023-03-01T15:19:05;100931.25;;;9.09
70819;BMP280;58439;51.046;13.692;2023-03-01T15:21:38;100920.19;;;8.65
70819;BMP280;58439;51.046;13.692;2023-03-01T15:26:59;100920.31;;;7.85
70819;BMP280;58439;51.046;13.692;2023-03-01T15:29:34;100926.78;;;7.63
70819;BMP280;58439;51.046;13.692;2023-03-01T15:32:35;100921.94;;;7.51
70819;BMP280;58439;51.046;13.692;2023-03-01T15:35:40;100912.59;;;7.40
70819;BMP280;58439;51.046;13.692;2023-03-01T15:41:47;100919.63;;;7.30
70819;BMP280;58439;51.046;13.692;2023-03-01T15:44:31;100923.13;;;7.21
70819;BMP280;58439;51.046;13.692;2023-03-01T15:47:25;100916.63;;;7.07
70819;BMP280;58439;51.046;13.692;2023-03-01T15:49:55;100910.94;;;6.93
70819;BMP280;58439;51.046;13.692;2023-03-01T15:52:28;100914.28;;;6.86
70819;BMP280;58439;51.046;13.692;2023-03-01T15:55:02;100908.00;;;6.79
70819;BMP280;58439;51.046;13.692;2023-03-01T15:57:30;100906.63;;;6.75
70819;BMP280;58439;51.046;13.692;2023-03-01T15:59:57;100901.66;;;6.54
70819;BMP280;58439;51.046;13.692;2023-03-01T16:03:22;100900.31;;;6.40
70819;BMP280;58439;51.046;13.692;2023-03-01T16:05:51;100898.69;;;6.39
70819;BMP280;58439;51.046;13.692;2023-03-01T16:08:19;100892.03;;;6.27
70819;BMP280;58439;51.046;13.692;2023-03-01T16:10:46;100895.34;;;6.19
70819;BMP280;58439;51.046;13.692;2023-03-01T16:13:16;100902.03;;;6.12
70819;BMP280;58439;51.046;13.692;2023-03-01T16:15:44;100906.00;;;6.06
70819;BMP280;58439;51.046;13.692;2023-03-01T16:18:15;100908.19;;;6.01
70819;BMP280;58439;51.046;13.692;2023-03-01T16:20:43;100911.88;;;5.99
70819;BMP280;58439;51.046;13.692;2023-03-01T16:23:11;100909.41;;;5.97
70819;BMP280;58439;51.046;13.692;2023-03-01T16:25:38;100913.22;;;5.93